createdAt,value
2022-10-01T00:01:14.880Z,10.18
2022-10-01T00:03:42.117Z,10.19
2022-10-01T00:06:13.385Z,10.18
2022-10-01T00:08:41.561Z,10.17
2022-10-01T00:11:13.088Z,10.17
2022-10-01T00:13:40.238Z,10.16
2022-10-01T00:16:09.036Z,10.16
2022-10-01T00:18:37.462Z,10.17
2022-10-01T00:21:15.466Z,10.16
2022-10-01T00:23:42.572Z,10.15
2022-10-01T00:26:14.347Z,10.15
2022-10-01T00:28:41.984Z,10.15
2022-10-01T00:31:09.759Z,10.14
2022-10-01T00:34:17.353Z,10.14
2022-10-01T00:36:43.710Z,10.14
2022-10-01T00:39:11.821Z,10.13
2022-10-01T00:41:38.479Z,10.15
2022-10-01T00:44:29.173Z,10.13
2022-10-01T00:47:01.623Z,10.12
2022-10-01T00:49:30.497Z,10.15
2022-10-01T00:52:05.584Z,10.15
2022-10-01T00:54:40.640Z,10.15
2022-10-01T00:57:07.653Z,10.17
2022-10-01T00:59:35.530Z,10.16
2022-10-01T01:02:04.560Z,10.18
2022-10-01T01:04:31.256Z,10.18
2022-10-01T01:07:03.935Z,10.18
2022-10-01T01:09:40.355Z,10.20
2022-10-01T01:12:25.530Z,10.20
2022-10-01T01:15:28.988Z,10.22
2022-10-01T01:18:06.083Z,10.24
2022-10-01T01:21:08.034Z,10.23
2022-10-01T01:23:49.412Z,10.23
2022-10-01T01:26:54.616Z,10.24
2022-10-01T01:29:43.580Z,10.24
2022-10-01T01:32:22.740Z,10.24
2022-10-01T01:34:52.447Z,10.24
2022-10-01T01:37:24.165Z,10.25
2022-10-01T01:39:53.285Z,10.26
2022-10-01T01:42:29.184Z,10.24
2022-10-01T01:44:58.845Z,10.27
2022-10-01T01:47:33.046Z,10.27
2022-10-01T01:50:02.764Z,10.29
2022-10-01T01:52:30.575Z,10.29
2022-10-01T01:54:58.185Z,10.31
2022-10-01T01:57:25.279Z,10.30
2022-10-01T01:59:53.817Z,10.32
2022-10-01T02:02:33.363Z,10.33
2022-10-01T02:05:03.538Z,10.33
2022-10-01T02:07:54.414Z,10.37
2022-10-01T02:10:59.861Z,10.37
2022-10-01T02:13:54.171Z,10.39
2022-10-01T02:16:28.044Z,10.40
2022-10-01T02:19:05.528Z,10.39
2022-10-01T02:21:47.288Z,10.41
2022-10-01T02:24:22.641Z,10.41
2022-10-01T02:26:52.189Z,10.42
2022-10-01T02:29:22.190Z,10.42
2022-10-01T02:31:53.321Z,10.43
2022-10-01T02:34:24.013Z,10.45
2022-10-01T02:36:52.323Z,10.47
2022-10-01T02:39:21.579Z,10.48
2022-10-01T02:41:51.691Z,10.48
2022-10-01T02:44:23.309Z,10.49
2022-10-01T02:46:56.203Z,10.51
2022-10-01T02:49:23.551Z,10.51
2022-10-01T02:52:12.213Z,10.54
2022-10-01T02:54:47.408Z,10.55
2022-10-01T02:57:27.737Z,10.56
2022-10-01T03:00:00.254Z,10.58
2022-10-01T03:02:31.831Z,10.59
2022-10-01T03:04:59.469Z,10.61
2022-10-01T03:07:27.943Z,10.60
2022-10-01T03:09:54.809Z,10.63
2022-10-01T03:12:22.533Z,10.64
2022-10-01T03:14:49.643Z,10.66
2022-10-01T03:17:16.964Z,10.68
2022-10-01T03:19:43.402Z,10.69
2022-10-01T03:22:14.781Z,10.71
2022-10-01T03:24:41.387Z,10.71
2022-10-01T03:27:07.729Z,10.76
2022-10-01T03:29:34.232Z,10.78
2022-10-01T03:32:04.084Z,10.79
2022-10-01T03:34:30.622Z,10.83
2022-10-01T03:36:56.985Z,10.81
2022-10-01T03:39:23.336Z,10.84
2022-10-01T03:41:50.004Z,10.87
2022-10-01T03:44:16.382Z,10.91
2022-10-01T03:46:43.755Z,10.91
2022-10-01T03:49:10.652Z,10.95
2022-10-01T03:51:44.829Z,10.94
2022-10-01T03:54:16.717Z,10.95
2022-10-01T03:56:43.314Z,10.97
2022-10-01T03:59:11.201Z,11.00
2022-10-01T04:01:39.372Z,11.03
2022-10-01T04:04:06.627Z,11.03
2022-10-01T04:06:33.335Z,11.06
2022-10-01T04:08:59.843Z,11.05
2022-10-01T04:11:29.028Z,11.08
2022-10-01T04:13:57.750Z,11.10
2022-10-01T04:16:24.902Z,11.09
2022-10-01T04:18:51.486Z,11.13
2022-10-01T04:21:18.005Z,11.13
2022-10-01T04:23:44.487Z,11.15
2022-10-01T04:26:11.084Z,11.18
2022-10-01T04:28:37.517Z,11.20
2022-10-01T04:31:22.602Z,11.19
2022-10-01T04:33:49.269Z,11.22
2022-10-01T04:36:15.955Z,11.24
2022-10-01T04:38:42.853Z,11.26
2022-10-01T04:41:09.781Z,11.26
2022-10-01T04:43:36.840Z,11.28
2022-10-01T04:46:03.198Z,11.29
2022-10-01T04:48:29.703Z,11.30
2022-10-01T04:50:56.056Z,11.33
2022-10-01T04:53:22.446Z,11.36
2022-10-01T04:55:48.845Z,11.41
2022-10-01T04:58:15.483Z,11.42
2022-10-01T05:00:41.896Z,11.44
2022-10-01T05:03:08.314Z,11.45
2022-10-01T05:05:35.319Z,11.49
2022-10-01T05:08:02.255Z,11.48
2022-10-01T05:10:29.789Z,11.51
2022-10-01T05:12:57.939Z,11.51
2022-10-01T05:15:24.457Z,11.52
2022-10-01T05:17:51.031Z,11.53
2022-10-01T05:20:20.473Z,11.52
2022-10-01T05:22:48.966Z,11.54
2022-10-01T05:25:17.244Z,11.51
2022-10-01T05:27:44.533Z,11.54
2022-10-01T05:30:13.036Z,11.55
2022-10-01T05:32:39.929Z,11.55
2022-10-01T05:35:07.745Z,11.58
2022-10-01T05:37:34.949Z,11.58
2022-10-01T05:40:01.852Z,11.59
2022-10-01T05:42:28.213Z,11.58
2022-10-01T05:44:56.240Z,11.58
2022-10-01T05:47:22.940Z,11.57
2022-10-01T05:49:49.539Z,11.53
2022-10-01T05:52:16.489Z,11.50
2022-10-01T05:54:43.043Z,11.47
2022-10-01T05:57:09.595Z,11.44
2022-10-01T05:59:36.232Z,11.43
2022-10-01T06:02:04.320Z,11.38
2022-10-01T06:04:41.053Z,11.39
2022-10-01T06:07:07.884Z,11.39
2022-10-01T06:09:34.251Z,11.39
2022-10-01T06:12:00.945Z,11.42
2022-10-01T06:14:27.601Z,11.47
2022-10-01T06:16:54.714Z,11.52
2022-10-01T06:19:21.201Z,11.57
2022-10-01T06:21:47.720Z,11.58
2022-10-01T06:24:14.492Z,11.61
2022-10-01T06:26:41.033Z,11.64
2022-10-01T06:29:07.553Z,11.69
2022-10-01T06:31:34.158Z,11.83
2022-10-01T06:34:00.926Z,12.13
2022-10-01T06:36:27.508Z,12.06
2022-10-01T06:38:53.878Z,12.22
2022-10-01T06:41:20.260Z,12.58
2022-10-01T06:43:48.772Z,12.57
2022-10-01T06:46:15.213Z,12.50
2022-10-01T06:48:41.765Z,12.51
2022-10-01T06:51:08.660Z,12.49
2022-10-01T06:53:35.092Z,12.76
2022-10-01T06:56:07.118Z,13.14
2022-10-01T06:58:34.059Z,12.97
2022-10-01T07:01:03.520Z,13.27
2022-10-01T07:03:31.371Z,13.15
2022-10-01T07:06:04.793Z,13.11
2022-10-01T07:08:31.180Z,13.22
2022-10-01T07:11:05.127Z,13.34
2022-10-01T07:13:31.552Z,13.58
2022-10-01T07:15:58.000Z,13.88
2022-10-01T07:18:24.384Z,14.26
2022-10-01T07:20:51.160Z,14.45
2022-10-01T07:23:17.768Z,14.35
2022-10-01T07:25:44.910Z,14.42
2022-10-01T07:28:18.321Z,14.48
2022-10-01T07:31:06.640Z,14.45
2022-10-01T07:33:33.478Z,14.38
2022-10-01T07:36:03.799Z,14.72
2022-10-01T07:38:30.501Z,14.85
2022-10-01T07:40:58.523Z,14.66
2022-10-01T07:43:25.156Z,15.66
2022-10-01T07:45:55.210Z,18.85
2022-10-01T07:48:21.852Z,18.68
2022-10-01T07:50:48.335Z,18.31
2022-10-01T07:53:15.264Z,17.61
2022-10-01T07:55:41.852Z,17.20
2022-10-01T07:58:09.651Z,17.93
2022-10-01T08:00:36.318Z,18.67
2022-10-01T08:03:02.922Z,21.54
2022-10-01T08:05:31.995Z,22.31
2022-10-01T08:08:00.448Z,19.42
2022-10-01T08:10:27.555Z,17.69
2022-10-01T08:13:00.532Z,16.65
2022-10-01T08:15:27.236Z,16.03
2022-10-01T08:17:53.585Z,15.67
2022-10-01T08:20:21.595Z,15.37
2022-10-01T08:22:48.096Z,15.22
2022-10-01T08:25:15.147Z,15.14
2022-10-01T08:27:41.743Z,15.03
2022-10-01T08:30:08.728Z,14.80
2022-10-01T08:32:35.109Z,14.66
2022-10-01T08:35:01.494Z,14.55
2022-10-01T08:37:29.239Z,14.55
2022-10-01T08:39:56.738Z,14.74
2022-10-01T08:42:38.055Z,15.85
2022-10-01T08:45:11.414Z,18.61
2022-10-01T08:47:42.469Z,19.27
2022-10-01T08:50:22.707Z,17.81
2022-10-01T08:53:02.847Z,17.34
2022-10-01T08:55:36.337Z,17.90
2022-10-01T08:58:06.428Z,17.41
2022-10-01T09:00:40.184Z,17.39
2022-10-01T09:03:10.563Z,17.79
2022-10-01T09:06:18.189Z,19.33
2022-10-01T09:09:04.393Z,20.54
2022-10-01T09:11:52.591Z,21.08
2022-10-01T09:14:26.126Z,22.23
2022-10-01T09:16:58.011Z,22.95
2022-10-01T09:19:54.545Z,22.94
2022-10-01T09:22:48.669Z,22.11
2022-10-01T09:25:27.109Z,22.43
2022-10-01T09:28:24.213Z,23.44
2022-10-01T09:30:55.868Z,23.20
2022-10-01T09:33:25.377Z,23.08
2022-10-01T09:36:09.703Z,21.69
2022-10-01T09:38:41.692Z,20.05
2022-10-01T09:41:10.555Z,19.14
2022-10-01T09:43:39.373Z,18.53
2022-10-01T09:46:13.203Z,18.04
2022-10-01T09:49:03.248Z,17.81
2022-10-01T09:51:44.993Z,17.70
2022-10-01T09:54:36.196Z,17.81
2022-10-01T09:57:24.904Z,17.74
2022-10-01T10:00:17.387Z,17.59
2022-10-01T10:02:49.384Z,17.64
2022-10-01T10:05:17.724Z,17.49
2022-10-01T10:07:46.846Z,17.31
2022-10-01T10:10:25.914Z,17.15
2022-10-01T10:13:14.627Z,16.87
2022-10-01T10:16:00.484Z,16.53
2022-10-01T10:18:35.604Z,16.48
2022-10-01T10:21:07.456Z,16.53
2022-10-01T10:23:34.421Z,16.62
2022-10-01T10:26:03.242Z,16.70
2022-10-01T10:28:44.614Z,16.59
2022-10-01T10:31:21.209Z,16.57
2022-10-01T10:33:51.140Z,16.45
2022-10-01T10:36:19.663Z,16.45
2022-10-01T10:38:53.799Z,16.41
2022-10-01T10:41:26.306Z,16.35
2022-10-01T10:43:57.613Z,16.27
2022-10-01T10:46:34.262Z,16.24
2022-10-01T10:49:06.268Z,16.32
2022-10-01T10:51:48.657Z,16.39
2022-10-01T10:54:20.758Z,16.42
2022-10-01T10:56:55.078Z,16.58
2022-10-01T10:59:21.716Z,16.74
2022-10-01T11:01:49.439Z,16.95
2022-10-01T11:04:42.105Z,16.72
2022-10-01T11:07:11.188Z,16.59
2022-10-01T11:10:16.366Z,16.97
2022-10-01T11:13:09.052Z,17.32
2022-10-01T11:15:38.675Z,17.56
2022-10-01T11:18:25.459Z,17.55
2022-10-01T11:21:22.735Z,17.64
2022-10-01T11:23:59.157Z,17.63
2022-10-01T11:26:46.212Z,17.88
2022-10-01T11:29:26.463Z,17.68
2022-10-01T11:32:19.749Z,17.47
2022-10-01T11:34:56.908Z,17.09
2022-10-01T11:37:38.952Z,17.39
2022-10-01T11:40:17.983Z,17.45
2022-10-01T11:42:46.614Z,17.11
2022-10-01T11:45:23.483Z,16.77
2022-10-01T11:47:57.495Z,16.55
2022-10-01T11:50:29.035Z,16.66
2022-10-01T11:53:05.987Z,17.04
2022-10-01T11:55:57.667Z,17.40
2022-10-01T11:58:57.109Z,17.60
2022-10-01T12:01:23.573Z,17.64
2022-10-01T12:03:56.801Z,17.84
2022-10-01T12:06:39.798Z,17.65
2022-10-01T12:09:20.680Z,17.29
2022-10-01T12:12:01.356Z,16.95
2022-10-01T12:14:40.276Z,16.82
2022-10-01T12:17:18.808Z,16.73
2022-10-01T12:19:50.837Z,16.67
2022-10-01T12:22:24.698Z,16.93
2022-10-01T12:24:51.818Z,16.98
2022-10-01T12:27:24.036Z,17.13
2022-10-01T12:30:15.013Z,17.23
2022-10-01T12:32:41.468Z,17.26
2022-10-01T12:35:22.493Z,17.33
2022-10-01T12:38:01.666Z,17.45
2022-10-01T12:41:04.083Z,17.68
2022-10-01T12:43:58.538Z,17.93
2022-10-01T12:46:35.207Z,18.17
2022-10-01T12:49:13.743Z,18.01
2022-10-01T12:51:46.229Z,17.74
2022-10-01T12:54:45.955Z,17.35
2022-10-01T12:57:23.106Z,17.09
2022-10-01T13:00:18.165Z,16.96
2022-10-01T13:03:19.948Z,17.20
2022-10-01T13:05:55.329Z,17.54
2022-10-01T13:08:57.967Z,17.80
2022-10-01T13:11:37.460Z,18.07
2022-10-01T13:14:07.132Z,18.39
2022-10-01T13:16:42.640Z,18.40
2022-10-01T13:19:19.356Z,18.42
2022-10-01T13:22:15.587Z,18.48
2022-10-01T13:24:53.579Z,18.67
2022-10-01T13:27:35.464Z,18.84
2022-10-01T13:30:18.936Z,18.77
2022-10-01T13:32:58.597Z,18.90
2022-10-01T13:35:35.944Z,19.07
2022-10-01T13:38:30.575Z,19.00
2022-10-01T13:41:03.262Z,19.09
2022-10-01T13:43:31.520Z,19.01
2022-10-01T13:46:07.180Z,18.76
2022-10-01T13:48:35.415Z,18.63
2022-10-01T13:51:10.603Z,18.91
2022-10-01T13:53:47.334Z,19.25
2022-10-01T13:56:28.106Z,19.24
2022-10-01T13:58:54.696Z,19.17
2022-10-01T14:01:24.089Z,18.90
2022-10-01T14:03:57.313Z,18.54
2022-10-01T14:06:26.160Z,18.48
2022-10-01T14:09:03.384Z,18.57
2022-10-01T14:11:51.556Z,18.74
2022-10-01T14:14:52.957Z,18.69
2022-10-01T14:17:23.032Z,18.54
2022-10-01T14:19:50.983Z,18.40
2022-10-01T14:22:21.379Z,18.10
2022-10-01T14:25:12.269Z,18.14
2022-10-01T14:27:47.545Z,18.16
2022-10-01T14:30:18.528Z,18.02
2022-10-01T14:33:03.896Z,17.93
2022-10-01T14:35:36.616Z,17.85
2022-10-01T14:38:22.185Z,17.91
2022-10-01T14:40:50.564Z,18.34
2022-10-01T14:43:29.028Z,18.60
2022-10-01T14:46:04.380Z,18.65
2022-10-01T14:48:33.600Z,18.39
2022-10-01T14:51:03.085Z,18.25
2022-10-01T14:53:36.153Z,18.23
2022-10-01T14:56:12.450Z,18.26
2022-10-01T14:58:38.799Z,18.21
2022-10-01T15:01:06.584Z,18.02
2022-10-01T15:03:41.794Z,18.04
2022-10-01T15:06:41.523Z,18.19
2022-10-01T15:09:18.698Z,18.21
2022-10-01T15:11:48.609Z,18.24
2022-10-01T15:14:19.939Z,18.26
2022-10-01T15:16:46.924Z,18.32
2022-10-01T15:19:17.102Z,18.24
2022-10-01T15:21:51.072Z,18.08
2022-10-01T15:24:35.616Z,18.12
2022-10-01T15:27:02.503Z,18.00
2022-10-01T15:29:29.128Z,17.95
2022-10-01T15:31:57.453Z,17.91
2022-10-01T15:34:26.623Z,17.94
2022-10-01T15:36:54.050Z,17.87
2022-10-01T15:39:37.593Z,17.80
2022-10-01T15:42:10.197Z,17.69
2022-10-01T15:44:38.625Z,17.65
2022-10-01T15:47:20.724Z,17.59
2022-10-01T15:50:11.130Z,17.40
2022-10-01T15:52:49.831Z,17.24
2022-10-01T15:55:42.712Z,17.10
2022-10-01T15:58:23.224Z,16.90
2022-10-01T16:00:58.963Z,16.80
2022-10-01T16:03:48.804Z,16.69
2022-10-01T16:06:23.594Z,16.64
2022-10-01T16:09:02.957Z,16.54
2022-10-01T16:11:33.932Z,16.42
2022-10-01T16:14:18.912Z,16.28
2022-10-01T16:16:45.543Z,16.21
2022-10-01T16:19:28.310Z,16.04
2022-10-01T16:22:18.837Z,15.95
2022-10-01T16:24:47.725Z,15.91
2022-10-01T16:27:27.481Z,15.95
2022-10-01T16:30:09.069Z,15.87
2022-10-01T16:32:35.804Z,15.83
2022-10-01T16:35:25.159Z,15.76
2022-10-01T16:37:54.827Z,15.67
2022-10-01T16:40:24.045Z,15.58
2022-10-01T16:42:51.565Z,15.51
2022-10-01T16:45:26.935Z,15.37
2022-10-01T16:47:56.812Z,15.30
2022-10-01T16:50:24.295Z,15.27
2022-10-01T16:52:56.814Z,15.21
2022-10-01T16:55:32.426Z,15.13
2022-10-01T16:57:58.932Z,15.09
2022-10-01T17:00:27.520Z,15.02
2022-10-01T17:02:55.336Z,14.97
2022-10-01T17:05:22.868Z,14.93
2022-10-01T17:07:49.744Z,14.89
2022-10-01T17:10:18.131Z,14.80
2022-10-01T17:12:47.861Z,14.77
2022-10-01T17:15:19.816Z,14.73
2022-10-01T17:17:47.038Z,14.65
2022-10-01T17:20:13.446Z,14.59
2022-10-01T17:22:40.021Z,14.52
2022-10-01T17:25:07.458Z,14.45
2022-10-01T17:27:34.119Z,14.38
2022-10-01T17:30:00.521Z,14.28
2022-10-01T17:32:27.223Z,14.20
2022-10-01T17:34:54.394Z,14.09
2022-10-01T17:37:23.812Z,13.99
2022-10-01T17:39:50.472Z,13.92
2022-10-01T17:42:18.057Z,13.86
2022-10-01T17:44:44.784Z,13.80
2022-10-01T17:47:11.383Z,13.76
2022-10-01T17:49:37.837Z,13.71
2022-10-01T17:52:05.813Z,13.60
2022-10-01T17:54:33.203Z,13.50
2022-10-01T17:56:59.561Z,13.39
2022-10-01T17:59:26.244Z,13.34
2022-10-01T18:01:53.354Z,13.28
2022-10-01T18:04:21.692Z,13.22
2022-10-01T18:06:49.000Z,13.16
2022-10-01T18:09:15.784Z,13.16
2022-10-01T18:11:42.149Z,13.12
2022-10-01T18:14:08.566Z,13.10
2022-10-01T18:16:35.511Z,13.06
2022-10-01T18:21:49.370Z,12.96
2022-10-01T18:24:16.447Z,12.93
2022-10-01T18:26:43.254Z,12.87
2022-10-01T18:29:21.900Z,12.79
2022-10-01T18:31:53.276Z,12.71
2022-10-01T18:34:26.653Z,12.66
2022-10-01T18:37:04.379Z,12.67
2022-10-01T18:39:43.123Z,12.61
2022-10-01T18:42:19.204Z,12.56
2022-10-01T18:44:52.747Z,12.54
2022-10-01T18:47:27.942Z,12.47
2022-10-01T18:50:12.866Z,12.45
2022-10-01T18:52:54.604Z,12.39
2022-10-01T18:55:59.816Z,12.35
2022-10-01T18:59:00.812Z,12.37
2022-10-01T19:01:50.300Z,12.37
2022-10-01T19:04:43.456Z,12.35
2022-10-01T19:07:22.332Z,12.35
2022-10-01T19:10:08.648Z,12.33
2022-10-01T19:12:43.867Z,12.31
2022-10-01T19:15:28.868Z,12.28
2022-10-01T19:17:58.245Z,12.28
2022-10-01T19:20:30.567Z,12.29
2022-10-01T19:23:10.631Z,12.28
2022-10-01T19:25:47.405Z,12.30
2022-10-01T19:28:22.503Z,12.30
2022-10-01T19:31:07.380Z,12.26
2022-10-01T19:33:39.641Z,12.26
2022-10-01T19:36:13.534Z,12.27
2022-10-01T19:38:48.118Z,12.30
2022-10-01T19:41:25.491Z,12.33
2022-10-01T19:44:00.796Z,12.36
2022-10-01T19:46:41.021Z,12.36
2022-10-01T19:49:08.656Z,12.35
2022-10-01T19:51:48.361Z,12.34
2022-10-01T19:54:18.262Z,12.32
2022-10-01T19:56:48.566Z,12.29
2022-10-01T19:59:19.811Z,12.29
2022-10-01T20:01:54.400Z,12.28
2022-10-01T20:04:45.788Z,12.22
2022-10-01T20:07:21.763Z,12.17
2022-10-01T20:10:16.343Z,12.13
2022-10-01T20:13:07.218Z,12.11
2022-10-01T20:15:42.363Z,12.09
2022-10-01T20:18:41.532Z,12.08
2022-10-01T20:21:13.627Z,12.06
2022-10-01T20:23:53.364Z,12.01
2022-10-01T20:26:37.620Z,12.00
2022-10-01T20:29:17.627Z,11.99
2022-10-01T20:32:03.388Z,11.99
2022-10-01T20:34:56.879Z,11.95
2022-10-01T20:37:52.300Z,11.93
2022-10-01T20:40:24.959Z,11.93
2022-10-01T20:42:57.638Z,11.91
2022-10-01T20:45:29.911Z,11.93
2022-10-01T20:48:01.546Z,11.91
2022-10-01T20:50:38.578Z,11.89
2022-10-01T20:53:15.022Z,11.83
2022-10-01T20:55:50.629Z,11.83
2022-10-01T20:58:24.839Z,11.81
2022-10-01T21:00:59.588Z,11.79
2022-10-01T21:03:55.244Z,11.78
2022-10-01T21:06:30.023Z,11.76
2022-10-01T21:09:17.873Z,11.73
2022-10-01T21:11:58.380Z,11.72
2022-10-01T21:14:46.582Z,11.70
2022-10-01T21:17:23.192Z,11.68
2022-10-01T21:20:11.555Z,11.66
2022-10-01T21:23:15.820Z,11.63
2022-10-01T21:25:51.396Z,11.63
2022-10-01T21:28:39.652Z,11.63
2022-10-01T21:31:13.024Z,11.63
2022-10-01T21:33:54.122Z,11.62
2022-10-01T21:36:52.370Z,11.59
2022-10-01T21:39:28.862Z,11.60
2022-10-01T21:42:11.465Z,11.58
2022-10-01T21:45:11.882Z,11.58
2022-10-01T21:48:11.210Z,11.57
2022-10-01T21:50:51.399Z,11.54
2022-10-01T21:53:34.341Z,11.52
2022-10-01T21:56:35.517Z,11.51
2022-10-01T21:59:07.463Z,11.52
2022-10-01T22:01:49.676Z,11.51
2022-10-01T22:04:32.923Z,11.52
2022-10-01T22:07:08.736Z,11.50
2022-10-01T22:09:43.233Z,11.48
2022-10-01T22:12:10.912Z,11.50
2022-10-01T22:14:38.634Z,11.51
2022-10-01T22:17:17.595Z,11.53
2022-10-01T22:19:51.133Z,11.53
2022-10-01T22:22:23.973Z,11.54
2022-10-01T22:24:53.153Z,11.57
2022-10-01T22:27:37.169Z,11.62
2022-10-01T22:30:17.524Z,11.67
2022-10-01T22:33:05.542Z,11.71
2022-10-01T22:35:51.337Z,11.77
2022-10-01T22:38:32.952Z,11.87
2022-10-01T22:41:17.043Z,11.92
2022-10-01T22:43:45.806Z,11.96
2022-10-01T22:46:46.519Z,12.04
2022-10-01T22:49:54.613Z,12.19
2022-10-01T22:52:42.728Z,12.30
2022-10-01T22:55:12.004Z,12.37
2022-10-01T22:58:23.037Z,12.40
2022-10-01T23:01:00.654Z,12.40
2022-10-01T23:03:50.000Z,12.43
2022-10-01T23:06:45.443Z,12.46
2022-10-01T23:09:24.852Z,12.48
2022-10-01T23:12:09.242Z,12.50
2022-10-01T23:14:57.227Z,12.57
2022-10-01T23:17:36.351Z,12.61
2022-10-01T23:20:16.398Z,12.59
2022-10-01T23:22:54.575Z,12.54
2022-10-01T23:25:49.478Z,12.53
2022-10-01T23:28:27.706Z,12.49
2022-10-01T23:31:40.319Z,12.47
2022-10-01T23:34:28.497Z,12.44
2022-10-01T23:37:23.684Z,12.41
2022-10-01T23:39:58.776Z,12.36
2022-10-01T23:42:37.753Z,12.32
2022-10-01T23:45:52.671Z,12.28
2022-10-01T23:48:28.340Z,12.25
2022-10-01T23:51:07.128Z,12.25
2022-10-01T23:53:53.696Z,12.25
2022-10-01T23:56:43.225Z,12.22
2022-10-01T23:59:23.642Z,12.21
